SAS4552 ENVA-ENBO
Flight info
| Callsign | SAS4552 |
|---|---|
| Flight time | 0h 45m |
| Altitude | 39000 |
| Route | NIGEX DCT ODNOS |
| Aircraft | B737/M-SDE2E3FGHIRWXY/LB1 |
Departure
| Time | 2026-04-29 09:44 |
|---|---|
| Airport | Trondheim Airport, Værnes (ENVA) |
Arrival
| Time | 2026-04-29 10:30 |
|---|---|
| Airport | Bodø Airport (ENBO) |
| Time | Latitude | Longitude | Altitude | Speed | Heading |
|---|---|---|---|---|---|
| 2026-04-29 09:04 | 63.45498 | 10.91745 | 38 ft | 0 kts | 180° |
| 2026-04-29 09:04 | 63.45497 | 10.91744 | 38 ft | 0 kts | 180° |
| 2026-04-29 09:35 | 63.45511 | 10.91745 | 38 ft | 4 kts | 180° |
| 2026-04-29 09:36 | 63.45536 | 10.91745 | 38 ft | 2 kts | 180° |
| 2026-04-29 09:36 | 63.45537 | 10.91745 | 38 ft | 3 kts | 180° |
| 2026-04-29 09:40 | 63.45539 | 10.91770 | 35 ft | 3 kts | 57° |
| 2026-04-29 09:40 | 63.45577 | 10.91803 | 38 ft | 9 kts | 30° |
| 2026-04-29 09:41 | 63.45595 | 10.91959 | 39 ft | 13 kts | 90° |
| 2026-04-29 09:41 | 63.45595 | 10.92195 | 40 ft | 18 kts | 90° |
| 2026-04-29 09:41 | 63.45593 | 10.92486 | 41 ft | 19 kts | 91° |
| 2026-04-29 09:41 | 63.45594 | 10.92766 | 44 ft | 15 kts | 90° |
| 2026-04-29 09:42 | 63.45593 | 10.92994 | 48 ft | 14 kts | 90° |
| 2026-04-29 09:42 | 63.45593 | 10.93211 | 51 ft | 14 kts | 90° |
| 2026-04-29 09:42 | 63.45593 | 10.93443 | 54 ft | 16 kts | 90° |
| 2026-04-29 09:42 | 63.45593 | 10.93714 | 56 ft | 17 kts | 86° |
| 2026-04-29 09:43 | 63.45633 | 10.93914 | 56 ft | 12 kts | 43° |
| 2026-04-29 09:43 | 63.45693 | 10.94048 | 59 ft | 13 kts | 44° |
| 2026-04-29 09:43 | 63.45753 | 10.94073 | 56 ft | 6 kts | 320° |
| 2026-04-29 09:43 | 63.45757 | 10.93962 | 58 ft | 11 kts | 270° |
| 2026-04-29 09:44 | 63.45759 | 10.93324 | 51 ft | 78 kts | 270° |
| 2026-04-29 09:44 | 63.45760 | 10.91608 | 38 ft | 140 kts | 270° |
| 2026-04-29 09:44 | 63.45764 | 10.89169 | 368 ft | 163 kts | 269° |
| 2026-04-29 09:44 | 63.45761 | 10.86632 | 1181 ft | 165 kts | 269° |
| 2026-04-29 09:45 | 63.45765 | 10.84016 | 1996 ft | 168 kts | 271° |
| 2026-04-29 09:45 | 63.45778 | 10.81475 | 3089 ft | 159 kts | 271° |
| 2026-04-29 09:45 | 63.45788 | 10.79067 | 4078 ft | 152 kts | 272° |
| 2026-04-29 09:45 | 63.45796 | 10.76740 | 4981 ft | 148 kts | 273° |
| 2026-04-29 09:46 | 63.45802 | 10.74371 | 5504 ft | 166 kts | 274° |
| 2026-04-29 09:46 | 63.45821 | 10.71633 | 5851 ft | 184 kts | 279° |
| 2026-04-29 09:46 | 63.46422 | 10.68994 | 5997 ft | 212 kts | 317° |
| 2026-04-29 09:46 | 63.47834 | 10.67654 | 6235 ft | 234 kts | 350° |
| 2026-04-29 09:47 | 63.49476 | 10.68186 | 7138 ft | 246 kts | 17° |
| 2026-04-29 09:47 | 63.50992 | 10.70052 | 8116 ft | 251 kts | 26° |
| 2026-04-29 09:47 | 63.52469 | 10.72188 | 9074 ft | 254 kts | 27° |
| 2026-04-29 09:47 | 63.53954 | 10.74385 | 10035 ft | 261 kts | 27° |
| 2026-04-29 09:48 | 63.55531 | 10.76697 | 10623 ft | 279 kts | 27° |
| 2026-04-29 09:48 | 63.57175 | 10.79099 | 11475 ft | 284 kts | 27° |
| 2026-04-29 09:48 | 63.58836 | 10.81518 | 12470 ft | 286 kts | 26° |
| 2026-04-29 09:48 | 63.60518 | 10.83955 | 13432 ft | 289 kts | 26° |
| 2026-04-29 09:49 | 63.62208 | 10.86395 | 14508 ft | 287 kts | 25° |
| 2026-04-29 09:49 | 63.63896 | 10.88825 | 15443 ft | 290 kts | 25° |
| 2026-04-29 09:49 | 63.65606 | 10.91278 | 16193 ft | 299 kts | 25° |
| 2026-04-29 09:49 | 63.67368 | 10.93808 | 17098 ft | 302 kts | 25° |
| 2026-04-29 09:50 | 63.69152 | 10.96375 | 18043 ft | 306 kts | 25° |
| 2026-04-29 09:50 | 63.70991 | 10.98810 | 18868 ft | 306 kts | 16° |
| 2026-04-29 09:50 | 63.72988 | 11.00381 | 19676 ft | 304 kts | 11° |
| 2026-04-29 09:50 | 63.75016 | 11.01780 | 20513 ft | 305 kts | 10° |
| 2026-04-29 09:51 | 63.77058 | 11.03156 | 21340 ft | 308 kts | 10° |
| 2026-04-29 09:51 | 63.79120 | 11.04550 | 22195 ft | 310 kts | 10° |
| 2026-04-29 09:51 | 63.81199 | 11.05969 | 23031 ft | 313 kts | 11° |
| 2026-04-29 09:51 | 63.83297 | 11.07415 | 23836 ft | 316 kts | 11° |
| 2026-04-29 09:52 | 63.85413 | 11.08885 | 24531 ft | 320 kts | 11° |
| 2026-04-29 09:52 | 63.87556 | 11.10383 | 25237 ft | 324 kts | 11° |
| 2026-04-29 09:52 | 63.89719 | 11.11903 | 25912 ft | 328 kts | 11° |
| 2026-04-29 09:52 | 63.91907 | 11.13447 | 26646 ft | 329 kts | 11° |
| 2026-04-29 09:53 | 63.94086 | 11.14994 | 27528 ft | 327 kts | 11° |
| 2026-04-29 09:53 | 63.96247 | 11.16535 | 28410 ft | 324 kts | 11° |
| 2026-04-29 09:53 | 63.98416 | 11.18077 | 28952 ft | 333 kts | 11° |
| 2026-04-29 09:53 | 64.00690 | 11.19681 | 29054 ft | 351 kts | 11° |
| 2026-04-29 09:54 | 64.03079 | 11.21370 | 29171 ft | 368 kts | 11° |
| 2026-04-29 09:54 | 64.05546 | 11.23125 | 29281 ft | 382 kts | 12° |
| 2026-04-29 09:54 | 64.08129 | 11.24971 | 29387 ft | 397 kts | 12° |
| 2026-04-29 09:54 | 64.10804 | 11.26892 | 29534 ft | 408 kts | 12° |
| 2026-04-29 09:55 | 64.13536 | 11.28866 | 29915 ft | 413 kts | 12° |
| 2026-04-29 09:55 | 64.16284 | 11.30861 | 30436 ft | 415 kts | 12° |
| 2026-04-29 09:55 | 64.19046 | 11.32872 | 30884 ft | 416 kts | 12° |
| 2026-04-29 09:55 | 64.21807 | 11.34882 | 31321 ft | 417 kts | 12° |
| 2026-04-29 09:56 | 64.24583 | 11.36904 | 31706 ft | 419 kts | 12° |
| 2026-04-29 09:56 | 64.27366 | 11.38932 | 32070 ft | 421 kts | 12° |
| 2026-04-29 09:56 | 64.30156 | 11.40969 | 32490 ft | 420 kts | 12° |
| 2026-04-29 09:56 | 64.32932 | 11.43003 | 33066 ft | 416 kts | 12° |
| 2026-04-29 09:57 | 64.35672 | 11.45016 | 33681 ft | 411 kts | 12° |
| 2026-04-29 09:57 | 64.38394 | 11.47018 | 34198 ft | 409 kts | 12° |
| 2026-04-29 09:57 | 64.41102 | 11.49010 | 34595 ft | 408 kts | 12° |
| 2026-04-29 09:57 | 64.43809 | 11.51002 | 34930 ft | 408 kts | 12° |
| 2026-04-29 09:58 | 64.46518 | 11.53000 | 35244 ft | 409 kts | 12° |
| 2026-04-29 09:58 | 64.49230 | 11.55004 | 35579 ft | 408 kts | 13° |
| 2026-04-29 09:58 | 64.51934 | 11.57009 | 35922 ft | 408 kts | 13° |
| 2026-04-29 09:58 | 64.54641 | 11.59019 | 36184 ft | 410 kts | 12° |
| 2026-04-29 09:59 | 64.57362 | 11.61042 | 36379 ft | 412 kts | 13° |
| 2026-04-29 09:59 | 64.60095 | 11.63081 | 36716 ft | 411 kts | 13° |
| 2026-04-29 09:59 | 64.62818 | 11.65120 | 37077 ft | 410 kts | 13° |
| 2026-04-29 09:59 | 64.65532 | 11.67155 | 37380 ft | 410 kts | 13° |
| 2026-04-29 10:00 | 64.68247 | 11.69194 | 37634 ft | 411 kts | 13° |
| 2026-04-29 10:00 | 64.70965 | 11.71239 | 37894 ft | 411 kts | 13° |
| 2026-04-29 10:00 | 64.73686 | 11.73291 | 38197 ft | 410 kts | 13° |
| 2026-04-29 10:00 | 64.76400 | 11.75343 | 38487 ft | 410 kts | 13° |
| 2026-04-29 10:01 | 64.79122 | 11.77403 | 38743 ft | 411 kts | 13° |
| 2026-04-29 10:01 | 64.81808 | 11.79442 | 38994 ft | 411 kts | 13° |
| 2026-04-29 10:01 | 64.84529 | 11.81511 | 39202 ft | 412 kts | 13° |
| 2026-04-29 10:01 | 64.87266 | 11.83595 | 39273 ft | 416 kts | 13° |
| 2026-04-29 10:02 | 64.92758 | 11.87795 | 39292 ft | 415 kts | 13° |
| 2026-04-29 10:02 | 64.98251 | 11.92015 | 39307 ft | 415 kts | 13° |
| 2026-04-29 10:03 | 65.03741 | 11.96249 | 39294 ft | 415 kts | 13° |
| 2026-04-29 10:03 | 65.09238 | 12.00507 | 39303 ft | 416 kts | 13° |
| 2026-04-29 10:04 | 65.14741 | 12.04788 | 39302 ft | 417 kts | 13° |
| 2026-04-29 10:04 | 65.20258 | 12.09099 | 39294 ft | 418 kts | 13° |
| 2026-04-29 10:05 | 65.25787 | 12.13439 | 39279 ft | 418 kts | 13° |
| 2026-04-29 10:05 | 65.31317 | 12.17798 | 39278 ft | 418 kts | 13° |
| 2026-04-29 10:06 | 65.35910 | 12.21434 | 39281 ft | 419 kts | 13° |
| 2026-04-29 10:06 | 65.41442 | 12.25831 | 39290 ft | 419 kts | 14° |
| 2026-04-29 10:07 | 65.47872 | 12.30966 | 39299 ft | 420 kts | 13° |
| 2026-04-29 10:07 | 65.53421 | 12.35418 | 39293 ft | 420 kts | 13° |
| 2026-04-29 10:08 | 65.58066 | 12.39161 | 39290 ft | 420 kts | 14° |
| 2026-04-29 10:08 | 65.63609 | 12.43647 | 39282 ft | 420 kts | 14° |
| 2026-04-29 10:09 | 65.69119 | 12.48125 | 39278 ft | 421 kts | 14° |
| 2026-04-29 10:09 | 65.74674 | 12.52659 | 39279 ft | 422 kts | 14° |
| 2026-04-29 10:10 | 65.80267 | 12.57244 | 38916 ft | 429 kts | 13° |
| 2026-04-29 10:10 | 65.83099 | 12.59572 | 38291 ft | 428 kts | 13° |
| 2026-04-29 10:10 | 65.85912 | 12.61896 | 37642 ft | 425 kts | 13° |
| 2026-04-29 10:11 | 65.88700 | 12.64208 | 36966 ft | 422 kts | 12° |
| 2026-04-29 10:11 | 65.91477 | 12.66514 | 36283 ft | 420 kts | 12° |
| 2026-04-29 10:11 | 65.94251 | 12.68819 | 35503 ft | 420 kts | 11° |
| 2026-04-29 10:11 | 65.97020 | 12.71123 | 34708 ft | 420 kts | 11° |
| 2026-04-29 10:12 | 65.99785 | 12.73430 | 33832 ft | 419 kts | 10° |
| 2026-04-29 10:12 | 66.02545 | 12.75737 | 32941 ft | 419 kts | 11° |
| 2026-04-29 10:12 | 66.05305 | 12.78048 | 32056 ft | 419 kts | 11° |
| 2026-04-29 10:12 | 66.08071 | 12.80368 | 31088 ft | 420 kts | 11° |
| 2026-04-29 10:13 | 66.10847 | 12.82701 | 30089 ft | 423 kts | 11° |
| 2026-04-29 10:13 | 66.13609 | 12.85035 | 29317 ft | 417 kts | 11° |
| 2026-04-29 10:13 | 66.16333 | 12.87350 | 28592 ft | 410 kts | 11° |
| 2026-04-29 10:13 | 66.19010 | 12.89630 | 27881 ft | 404 kts | 11° |
| 2026-04-29 10:14 | 66.21654 | 12.91881 | 27180 ft | 399 kts | 12° |
| 2026-04-29 10:14 | 66.24267 | 12.94107 | 26458 ft | 395 kts | 12° |
| 2026-04-29 10:14 | 66.26856 | 12.96315 | 25767 ft | 392 kts | 12° |
| 2026-04-29 10:14 | 66.29428 | 12.98512 | 25082 ft | 390 kts | 12° |
| 2026-04-29 10:15 | 66.31951 | 13.00672 | 24422 ft | 388 kts | 12° |
| 2026-04-29 10:15 | 66.34498 | 13.02856 | 23715 ft | 386 kts | 13° |
| 2026-04-29 10:15 | 66.37036 | 13.05038 | 22951 ft | 385 kts | 13° |
| 2026-04-29 10:15 | 66.39561 | 13.07216 | 22179 ft | 383 kts | 13° |
| 2026-04-29 10:16 | 66.42073 | 13.09389 | 21501 ft | 379 kts | 13° |
| 2026-04-29 10:16 | 66.44559 | 13.11545 | 20784 ft | 377 kts | 13° |
| 2026-04-29 10:16 | 66.47031 | 13.13691 | 20104 ft | 375 kts | 13° |
| 2026-04-29 10:16 | 66.49495 | 13.15834 | 19409 ft | 373 kts | 13° |
| 2026-04-29 10:17 | 66.51939 | 13.17965 | 18729 ft | 372 kts | 13° |
| 2026-04-29 10:17 | 66.54377 | 13.20094 | 17959 ft | 371 kts | 13° |
| 2026-04-29 10:17 | 66.56810 | 13.22223 | 17226 ft | 369 kts | 13° |
| 2026-04-29 10:17 | 66.59224 | 13.24341 | 16533 ft | 366 kts | 13° |
| 2026-04-29 10:18 | 66.61619 | 13.26442 | 15840 ft | 364 kts | 13° |
| 2026-04-29 10:18 | 66.64003 | 13.28543 | 15163 ft | 362 kts | 13° |
| 2026-04-29 10:18 | 66.66369 | 13.30634 | 14504 ft | 359 kts | 14° |
| 2026-04-29 10:18 | 66.68715 | 13.32712 | 13851 ft | 355 kts | 14° |
| 2026-04-29 10:19 | 66.71042 | 13.34774 | 13127 ft | 354 kts | 14° |
| 2026-04-29 10:19 | 66.73359 | 13.36831 | 12437 ft | 351 kts | 14° |
| 2026-04-29 10:19 | 66.75651 | 13.38871 | 11786 ft | 347 kts | 14° |
| 2026-04-29 10:19 | 66.77915 | 13.40891 | 11173 ft | 343 kts | 14° |
| 2026-04-29 10:20 | 66.80156 | 13.42895 | 10675 ft | 336 kts | 15° |
| 2026-04-29 10:20 | 66.82295 | 13.44818 | 10534 ft | 318 kts | 14° |
| 2026-04-29 10:20 | 66.84332 | 13.46648 | 10392 ft | 303 kts | 14° |
| 2026-04-29 10:20 | 66.86272 | 13.48390 | 10255 ft | 289 kts | 14° |
| 2026-04-29 10:21 | 66.88105 | 13.50038 | 10035 ft | 280 kts | 14° |
| 2026-04-29 10:21 | 66.89935 | 13.51677 | 9634 ft | 277 kts | 13° |
| 2026-04-29 10:21 | 66.91744 | 13.53324 | 9200 ft | 277 kts | 16° |
| 2026-04-29 10:21 | 66.93477 | 13.55510 | 8912 ft | 278 kts | 24° |
| 2026-04-29 10:22 | 66.95160 | 13.58020 | 8499 ft | 281 kts | 25° |
| 2026-04-29 10:22 | 66.96851 | 13.60565 | 8132 ft | 283 kts | 25° |
| 2026-04-29 10:22 | 66.98561 | 13.63094 | 7669 ft | 287 kts | 25° |
| 2026-04-29 10:22 | 67.00290 | 13.65658 | 7265 ft | 287 kts | 25° |
| 2026-04-29 10:23 | 67.02049 | 13.68264 | 6716 ft | 293 kts | 24° |
| 2026-04-29 10:23 | 67.03828 | 13.70845 | 6262 ft | 294 kts | 24° |
| 2026-04-29 10:23 | 67.05603 | 13.73427 | 5838 ft | 293 kts | 24° |
| 2026-04-29 10:23 | 67.07362 | 13.75998 | 5436 ft | 287 kts | 24° |
| 2026-04-29 10:24 | 67.09067 | 13.78501 | 5029 ft | 278 kts | 24° |
| 2026-04-29 10:24 | 67.10714 | 13.80925 | 4742 ft | 265 kts | 24° |
| 2026-04-29 10:24 | 67.12270 | 13.83222 | 4643 ft | 252 kts | 24° |
| 2026-04-29 10:24 | 67.13764 | 13.85427 | 4560 ft | 245 kts | 24° |
| 2026-04-29 10:25 | 67.15245 | 13.87607 | 4322 ft | 247 kts | 24° |
| 2026-04-29 10:25 | 67.16741 | 13.89810 | 4007 ft | 245 kts | 24° |
| 2026-04-29 10:25 | 67.18172 | 13.91933 | 3702 ft | 236 kts | 24° |
| 2026-04-29 10:25 | 67.19567 | 13.94001 | 3414 ft | 227 kts | 24° |
| 2026-04-29 10:26 | 67.20917 | 13.96005 | 3115 ft | 220 kts | 24° |
| 2026-04-29 10:26 | 67.22246 | 13.97976 | 2839 ft | 222 kts | 25° |
| 2026-04-29 10:26 | 67.23534 | 14.00209 | 2601 ft | 226 kts | 45° |
| 2026-04-29 10:26 | 67.24186 | 14.03739 | 2421 ft | 214 kts | 78° |
| 2026-04-29 10:27 | 67.24822 | 14.11014 | 1824 ft | 196 kts | 81° |
| 2026-04-29 10:27 | 67.25092 | 14.14341 | 1562 ft | 184 kts | 81° |
| 2026-04-29 10:27 | 67.25349 | 14.17496 | 1322 ft | 176 kts | 81° |
| 2026-04-29 10:28 | 67.25598 | 14.20542 | 1083 ft | 167 kts | 81° |
| 2026-04-29 10:28 | 67.25827 | 14.23319 | 847 ft | 151 kts | 82° |
| 2026-04-29 10:28 | 67.26032 | 14.25808 | 634 ft | 133 kts | 82° |
| 2026-04-29 10:28 | 67.26215 | 14.28034 | 469 ft | 125 kts | 81° |
| 2026-04-29 10:29 | 67.26394 | 14.30199 | 318 ft | 121 kts | 82° |
| 2026-04-29 10:29 | 67.26570 | 14.32288 | 125 ft | 117 kts | 81° |
| 2026-04-29 10:29 | 67.26736 | 14.34300 | 32 ft | 109 kts | 78° |
| 2026-04-29 10:29 | 67.26868 | 14.35871 | 37 ft | 65 kts | 77° |
| 2026-04-29 10:30 | 67.26920 | 14.36470 | 38 ft | 9 kts | 69° |
| 2026-04-29 10:30 | 67.26958 | 14.36503 | 39 ft | 5 kts | 350° |
| 2026-04-29 10:30 | 67.26994 | 14.36483 | 39 ft | 5 kts | 348° |
| 2026-04-29 10:30 | 67.27030 | 14.36465 | 42 ft | 5 kts | 351° |
| 2026-04-29 10:31 | 67.27050 | 14.36511 | 41 ft | 4 kts | 58° |
| 2026-04-29 10:31 | 67.27072 | 14.36554 | 44 ft | 4 kts | 31° |
| 2026-04-29 10:31 | 67.27095 | 14.36592 | 45 ft | 4 kts | 33° |
| 2026-04-29 10:31 | 67.27120 | 14.36636 | 43 ft | 5 kts | 35° |
| 2026-04-29 10:32 | 67.27135 | 14.36663 | 46 ft | 0 kts | 34° |
| 2026-04-29 10:32 | 67.27142 | 14.36674 | 46 ft | 3 kts | 34° |
| 2026-04-29 10:32 | 67.27149 | 14.36686 | 44 ft | 1 kts | 34° |
| 2026-04-29 10:32 | 67.27149 | 14.36687 | 44 ft | 0 kts | 34° |